Time;durP1;ratioP1;P1;durP2;ratioP2;P2;SDS_P1;SDS_P2;PMS_P1;PMS_P2;Temp;Humidity;BMP_temperature;BMP_pressure;BME280_temperature;BME280_humidity;BME280_pressure;Samples;Min_cycle;Max_cycle;Signal;HPM_P1;HPM_P2
2022/01/24 00:01:08;;;;;;;;;;;;;;;-4.56;78.86;100461.72;5011669;28;825;-56
2022/01/24 00:03:35;;;;;;;;;;;;;;;-4.63;79.03;100470.16;5011675;28;936;-56
2022/01/24 00:06:02;;;;;;;;;;;;;;;-4.65;78.79;100472.34;5011875;28;900;-56
2022/01/24 00:08:30;;;;;;;;;;;;;;;-4.59;78.64;100465.78;5011894;28;983;-56
2022/01/24 00:11:04;;;;;;;;;;;;;;;-4.56;78.11;100486.00;5011748;28;1951;-56
2022/01/24 00:16:15;;;;;;;;;;;;;;;-4.53;78.53;100480.03;5011248;28;1412;-56
2022/01/24 00:26:56;;;;;;;;;;;;;;;-4.43;77.95;100485.34;5011734;28;639;-56
2022/01/24 00:29:24;;;;;;;;;;;;;;;-4.46;78.37;100493.19;5011506;28;954;-56
2022/01/24 00:31:52;;;;;;;;;;;;;;;-4.46;78.43;100483.19;5011223;28;1910;-56
2022/01/24 00:34:18;;;;;;;;;;;;;;;-4.51;78.71;100483.25;5011514;28;1023;-56
2022/01/24 00:36:48;;;;;;;;;;;;;;;-4.57;79.12;100481.69;5011414;28;844;-56
2022/01/24 00:39:16;;;;;;;;;;;;;;;-4.61;79.27;100489.56;4993843;28;1661;-56
2022/01/24 00:42:02;;;;;;;;;;;;;;;-4.65;79.84;100485.81;5011856;28;825;-56
2022/01/24 00:47:23;;;;;;;;;;;;;;;-4.92;80.58;100487.13;5011988;28;703;-56
2022/01/24 00:55:22;;;;;;;;;;;;;;;-5.00;80.66;100471.53;5015499;28;631;-56
2022/01/24 00:57:49;;;;;;;;;;;;;;;-4.94;80.73;100480.41;5015136;28;892;-56
2022/01/24 01:00:16;;;;;;;;;;;;;;;-4.78;80.31;100492.69;5015137;28;900;-56
2022/01/24 01:02:43;;;;;;;;;;;;;;;-4.66;79.88;100496.91;5014992;28;876;-56
2022/01/24 01:18:38;;;;;;;;;;;;;;;-4.13;78.16;100495.00;5014572;28;607;-55
2022/01/24 01:21:10;;;;;;;;;;;;;;;-4.18;77.93;100484.28;5014497;28;812;-56
2022/01/24 01:23:39;;;;;;;;;;;;;;;-4.21;78.12;100492.13;5014447;28;899;-55
2022/01/24 01:26:12;;;;;;;;;;;;;;;-4.32;77.92;100503.03;5014328;28;907;-55
2022/01/24 01:28:42;;;;;;;;;;;;;;;-4.40;77.92;100519.84;5014219;28;899;-55
2022/01/24 01:31:16;;;;;;;;;;;;;;;-4.37;77.09;100508.50;5014283;28;1902;-55
2022/01/24 01:34:02;;;;;;;;;;;;;;;-4.39;77.05;100505.28;5014273;28;888;-55
2022/01/24 01:55:43;;;;;;;;;;;;;;;-5.06;75.46;100472.66;4953359;29;688;-55
2022/01/24 01:58:14;;;;;;;;;;;;;;;-5.06;75.23;100486.16;4953121;28;832;-55
2022/01/24 02:00:42;;;;;;;;;;;;;;;-5.11;75.53;100490.78;4953600;29;913;-56
2022/01/24 02:03:09;;;;;;;;;;;;;;;-5.09;75.11;100502.09;4953299;29;894;-55
2022/01/24 02:05:36;;;;;;;;;;;;;;;-5.08;74.85;100509.09;4953116;29;1051;-55
2022/01/24 02:08:03;;;;;;;;;;;;;;;-5.07;74.54;100524.19;4953227;29;885;-56
2022/01/24 02:10:33;;;;;;;;;;;;;;;-5.09;73.70;100475.94;4952992;29;1898;-55
2022/01/24 02:13:00;;;;;;;;;;;;;;;-5.09;74.10;100499.41;4988107;28;1121;-55
2022/01/24 02:15:39;;;;;;;;;;;;;;;-5.14;74.74;100502.94;5013153;28;1055;-56
2022/01/24 02:20:43;;;;;;;;;;;;;;;-5.23;74.83;100507.28;5013337;28;781;-56
2022/01/24 02:25:55;;;;;;;;;;;;;;;-5.27;74.34;100517.84;5013258;28;737;-55
2022/01/24 02:28:23;;;;;;;;;;;;;;;-5.27;74.40;100482.81;5013169;28;882;-55
2022/01/24 02:31:04;;;;;;;;;;;;;;;-5.25;74.17;100521.06;5013034;28;1981;-54
2022/01/24 02:33:30;;;;;;;;;;;;;;;-5.23;74.02;100523.47;5013127;28;915;-55
2022/01/24 02:35:57;;;;;;;;;;;;;;;-5.20;73.21;100494.06;4995681;28;1058;-55
2022/01/24 02:38:54;;;;;;;;;;;;;;;-5.21;74.04;100526.69;5012965;28;891;-55
2022/01/24 02:49:30;;;;;;;;;;;;;;;-5.35;74.16;100556.16;5012875;28;745;-56
2022/01/24 02:52:25;;;;;;;;;;;;;;;-5.37;74.37;100553.72;5012777;28;1886;-55
2022/01/24 02:54:52;;;;;;;;;;;;;;;-5.31;73.20;100551.81;5011299;28;1697;-55
2022/01/24 02:57:20;;;;;;;;;;;;;;;-5.34;73.57;100580.13;5012692;28;801;-55
2022/01/24 02:59:47;;;;;;;;;;;;;;;-5.30;73.29;100560.72;5012677;28;837;-56
2022/01/24 03:02:14;;;;;;;;;;;;;;;-5.28;72.89;100582.81;5012452;28;992;-55
2022/01/24 03:04:40;;;;;;;;;;;;;;;-5.27;72.58;100557.44;5012785;28;888;-55
2022/01/24 03:07:06;;;;;;;;;;;;;;;-5.34;72.86;100560.44;5012534;28;860;-56
2022/01/24 03:09:34;;;;;;;;;;;;;;;-5.35;72.76;100596.59;5012173;28;839;-56
2022/01/24 03:12:05;;;;;;;;;;;;;;;-5.29;72.73;100578.47;5012117;28;1886;-56
2022/01/24 03:14:33;;;;;;;;;;;;;;;-5.34;72.80;100588.19;5012028;28;1187;-56
2022/01/24 03:17:01;;;;;;;;;;;;;;;-5.37;72.90;100591.47;5012348;28;875;-57
2022/01/24 03:19:27;;;;;;;;;;;;;;;-5.28;72.58;100590.88;5012280;28;813;-56
2022/01/24 03:21:54;;;;;;;;;;;;;;;-5.35;72.88;100585.81;5012194;28;880;-56
2022/01/24 03:24:21;;;;;;;;;;;;;;;-5.41;73.30;100600.38;5012217;28;832;-56
2022/01/24 03:26:48;;;;;;;;;;;;;;;-5.44;73.43;100590.97;5012237;28;950;-56
2022/01/24 03:29:15;;;;;;;;;;;;;;;-5.44;73.59;100584.75;5012113;28;904;-56
2022/01/24 03:31:43;;;;;;;;;;;;;;;-5.41;73.55;100590.41;5012092;28;1914;-56
2022/01/24 03:34:09;;;;;;;;;;;;;;;-5.40;74.04;100602.81;5012060;28;985;-56
2022/01/24 03:36:35;;;;;;;;;;;;;;;-5.44;73.62;100599.03;5012038;28;884;-55
2022/01/24 03:39:02;;;;;;;;;;;;;;;-5.49;74.07;100609.03;5012099;28;817;-56
2022/01/24 03:41:29;;;;;;;;;;;;;;;-5.48;74.08;100608.75;5012003;28;891;-56
2022/01/24 03:44:02;;;;;;;;;;;;;;;-5.53;73.86;100614.16;5011773;28;860;-56
2022/01/24 03:46:30;;;;;;;;;;;;;;;-5.53;73.64;100622.22;5011922;28;825;-55
2022/01/24 03:49:08;;;;;;;;;;;;;;;-5.51;73.63;100592.31;5011955;28;845;-55
2022/01/24 03:51:35;;;;;;;;;;;;;;;-5.54;74.12;100632.22;5011789;28;1898;-56
2022/01/24 03:54:01;;;;;;;;;;;;;;;-5.56;74.14;100644.34;5011817;28;852;-56
2022/01/24 03:56:28;;;;;;;;;;;;;;;-5.56;74.69;100609.31;5011917;28;829;-56
2022/01/24 03:58:55;;;;;;;;;;;;;;;-5.56;74.85;100618.19;5011692;28;924;-55
2022/01/24 04:01:22;;;;;;;;;;;;;;;-5.52;74.73;100639.22;5011747;28;832;-56
2022/01/24 04:03:48;;;;;;;;;;;;;;;-5.57;75.39;100624.69;4994079;28;744;-56
2022/01/24 04:06:14;;;;;;;;;;;;;;;-5.61;75.66;100650.56;5011671;28;904;-55
2022/01/24 04:08:41;;;;;;;;;;;;;;;-5.65;75.85;100671.03;4994080;28;1784;-56
2022/01/24 04:11:11;;;;;;;;;;;;;;;-5.69;75.78;100645.72;5011612;28;1906;-56
2022/01/24 04:13:40;;;;;;;;;;;;;;;-5.75;75.66;100634.16;5011540;28;924;-56
2022/01/24 04:16:23;;;;;;;;;;;;;;;-5.76;76.12;100639.78;5011415;28;1150;-56
2022/01/24 04:23:50;;;;;;;;;;;;;;;-5.77;76.74;100675.91;5015456;28;926;-56
2022/01/24 04:26:16;;;;;;;;;;;;;;;-5.78;76.97;100674.31;5015457;28;916;-56
2022/01/24 04:28:43;;;;;;;;;;;;;;;-5.75;76.99;100653.00;5015461;28;872;-56
2022/01/24 04:31:09;;;;;;;;;;;;;;;-5.73;76.67;100678.88;5015613;28;1907;-56
2022/01/24 04:33:36;;;;;;;;;;;;;;;-5.83;76.97;100675.09;5015372;28;900;-56
2022/01/24 04:36:03;;;;;;;;;;;;;;;-5.77;76.67;100646.28;5015717;28;927;-56
2022/01/24 04:38:30;;;;;;;;;;;;;;;-5.80;77.04;100611.84;5015292;28;841;-55
2022/01/24 04:41:00;;;;;;;;;;;;;;;-5.90;77.01;100666.50;5015154;28;845;-56
2022/01/24 04:43:48;;;;;;;;;;;;;;;-5.91;76.78;100678.34;5015169;28;923;-56
2022/01/24 04:46:31;;;;;;;;;;;;;;;-5.91;77.18;100667.59;5015020;28;944;-56
2022/01/24 04:56:43;;;;;;;;;;;;;;;-5.82;76.81;100709.03;5014903;28;761;-56
2022/01/24 04:59:10;;;;;;;;;;;;;;;-5.72;76.27;100669.69;5014940;28;868;-56
2022/01/24 05:01:37;;;;;;;;;;;;;;;-5.63;76.09;100705.75;5014872;28;879;-55
2022/01/24 05:04:03;;;;;;;;;;;;;;;-5.60;75.58;100713.31;5014823;28;808;-56
2022/01/24 05:06:30;;;;;;;;;;;;;;;-5.61;76.10;100709.81;5014830;28;860;-56
2022/01/24 05:08:56;;;;;;;;;;;;;;;-5.59;76.01;100690.66;5014695;28;883;-56
2022/01/24 05:11:38;;;;;;;;;;;;;;;-5.58;76.02;100708.47;5014578;28;1890;-56
2022/01/24 05:24:47;;;;;;;;;;;;;;;-5.58;76.48;100728.13;5014678;28;800;-56
2022/01/24 05:27:13;;;;;;;;;;;;;;;-5.55;76.38;100726.75;5014409;28;813;-56
2022/01/24 05:29:40;;;;;;;;;;;;;;;-5.54;76.29;100721.09;5014334;28;856;-56
2022/01/24 05:32:08;;;;;;;;;;;;;;;-5.48;75.84;100711.13;5014142;28;1938;-56
2022/01/24 05:34:35;;;;;;;;;;;;;;;-5.42;75.64;100710.06;5013786;28;955;-56
2022/01/24 05:37:02;;;;;;;;;;;;;;;-5.42;75.51;100712.75;4996621;28;1168;-56
2022/01/24 05:39:28;;;;;;;;;;;;;;;-5.41;75.45;100724.31;5014096;28;868;-56
2022/01/24 05:41:54;;;;;;;;;;;;;;;-5.41;75.44;100729.72;5014050;28;825;-56
2022/01/24 05:44:21;;;;;;;;;;;;;;;-5.42;75.56;100720.84;5014024;28;817;-56
2022/01/24 05:46:47;;;;;;;;;;;;;;;-5.37;75.53;100720.00;5014037;28;837;-56
2022/01/24 05:49:14;;;;;;;;;;;;;;;-5.34;75.08;100733.72;5014014;28;837;-55
2022/01/24 05:51:40;;;;;;;;;;;;;;;-5.33;75.34;100739.94;5013835;28;1885;-56
2022/01/24 05:54:07;;;;;;;;;;;;;;;-5.34;75.24;100747.19;5013789;28;940;-55
2022/01/24 05:56:34;;;;;;;;;;;;;;;-5.29;74.94;100749.09;5013738;28;873;-56
2022/01/24 05:59:00;;;;;;;;;;;;;;;-5.27;74.91;100738.03;5013746;28;968;-55
2022/01/24 06:01:26;;;;;;;;;;;;;;;-5.29;74.73;100743.72;5013787;28;864;-55
2022/01/24 06:03:53;;;;;;;;;;;;;;;-5.23;74.84;100736.41;5013760;28;872;-56
2022/01/24 06:06:19;;;;;;;;;;;;;;;-5.22;74.70;100746.09;5013552;28;848;-56
2022/01/24 06:08:46;;;;;;;;;;;;;;;-5.15;74.19;100760.09;5013654;28;880;-56
2022/01/24 06:11:13;;;;;;;;;;;;;;;-5.15;74.73;100749.31;5013346;28;1953;-56
2022/01/24 06:13:39;;;;;;;;;;;;;;;-5.04;73.84;100739.31;5013479;28;860;-56
2022/01/24 06:16:06;;;;;;;;;;;;;;;-5.05;74.34;100757.38;5012668;28;1467;-56
2022/01/24 06:18:33;;;;;;;;;;;;;;;-5.02;74.29;100720.97;5012463;28;805;-55
2022/01/24 06:20:59;;;;;;;;;;;;;;;-5.02;74.21;100740.63;5012498;28;853;-56
2022/01/24 06:23:26;;;;;;;;;;;;;;;-4.98;74.06;100757.88;5012380;28;841;-56
2022/01/24 06:25:52;;;;;;;;;;;;;;;-4.98;74.33;100757.88;5012684;28;864;-56
2022/01/24 06:28:19;;;;;;;;;;;;;;;-4.98;74.54;100760.56;5012237;28;924;-56
2022/01/24 06:30:45;;;;;;;;;;;;;;;-4.96;75.03;100776.50;5012171;28;1906;-56
2022/01/24 06:33:12;;;;;;;;;;;;;;;-4.88;74.12;100767.03;5012330;28;821;-56
2022/01/24 06:35:38;;;;;;;;;;;;;;;-4.83;73.99;100748.94;5012138;28;1570;-56
2022/01/24 06:38:04;;;;;;;;;;;;;;;-4.81;74.24;100749.47;4994552;28;1511;-55
2022/01/24 06:40:32;;;;;;;;;;;;;;;-4.76;73.75;100764.81;4994376;28;778;-56
2022/01/24 06:42:58;;;;;;;;;;;;;;;-4.70;74.49;100792.59;5011990;28;929;-56
2022/01/24 06:45:24;;;;;;;;;;;;;;;-4.67;74.19;100781.22;5011000;28;903;-56
2022/01/24 06:47:51;;;;;;;;;;;;;;;-4.67;73.65;100790.16;5012069;28;832;-56
2022/01/24 06:50:17;;;;;;;;;;;;;;;-4.68;73.61;100799.31;5012183;28;1886;-56
2022/01/24 06:52:45;;;;;;;;;;;;;;;-4.68;74.02;100776.94;5012132;28;860;-56
2022/01/24 06:55:12;;;;;;;;;;;;;;;-4.65;73.94;100803.34;5011821;28;912;-55
2022/01/24 06:57:38;;;;;;;;;;;;;;;-4.66;74.34;100790.94;5011904;28;938;-56
2022/01/24 07:00:06;;;;;;;;;;;;;;;-4.63;74.68;100795.78;5012066;28;880;-56
2022/01/24 07:02:32;;;;;;;;;;;;;;;-4.61;74.69;100802.53;5011768;28;817;-56
2022/01/24 07:04:59;;;;;;;;;;;;;;;-4.63;75.01;100814.66;5011916;28;892;-56
2022/01/24 07:07:25;;;;;;;;;;;;;;;-4.63;75.67;100803.88;5011907;28;824;-56
2022/01/24 07:09:52;;;;;;;;;;;;;;;-4.59;75.20;100784.16;4994273;28;1894;-56
2022/01/24 07:12:18;;;;;;;;;;;;;;;-4.55;75.12;100790.59;5011868;28;880;-56
2022/01/24 07:14:44;;;;;;;;;;;;;;;-4.56;74.79;100796.31;4901603;28;3196454;-56
2022/01/24 07:17:33;;;;;;;;;;;;;;;-4.52;75.43;100790.06;5109572;27;1320;-56
2022/01/24 07:20:00;;;;;;;;;;;;;;;-4.57;75.57;100800.06;5109947;28;790;-56
2022/01/24 07:22:27;;;;;;;;;;;;;;;-4.59;76.10;100818.44;5109562;28;842;-56
2022/01/24 07:24:53;;;;;;;;;;;;;;;-4.59;76.31;100823.81;5109308;28;834;-55
2022/01/24 07:27:19;;;;;;;;;;;;;;;-4.67;76.30;100810.91;5109247;28;806;-56
2022/01/24 07:29:45;;;;;;;;;;;;;;;-4.70;76.58;100803.38;5109252;28;822;-56
2022/01/24 07:32:13;;;;;;;;;;;;;;;-4.77;77.20;100809.88;5109222;28;928;-55
2022/01/24 07:34:39;;;;;;;;;;;;;;;-4.75;77.45;100802.31;5109106;28;854;-56
2022/01/24 07:37:06;;;;;;;;;;;;;;;-4.74;77.33;100808.50;5107846;28;1963;-56
2022/01/24 07:39:33;;;;;;;;;;;;;;;-4.75;77.27;100809.59;5108946;28;826;-56
2022/01/24 07:42:04;;;;;;;;;;;;;;;-4.73;77.07;100792.03;5109041;28;889;-55
2022/01/24 07:47:34;;;;;;;;;;;;;;;-4.57;76.25;100819.75;5105220;28;1096;-56
2022/01/24 07:50:02;;;;;;;;;;;;;;;-4.58;76.11;100817.34;5108931;28;810;-55
2022/01/24 07:52:28;;;;;;;;;;;;;;;-4.60;75.83;100822.22;5107512;28;925;-56
2022/01/24 07:54:55;;;;;;;;;;;;;;;-4.52;75.78;100822.44;5108730;28;1882;-56
2022/01/24 07:57:21;;;;;;;;;;;;;;;-4.50;75.36;100824.88;5108735;28;916;-55
2022/01/24 07:59:47;;;;;;;;;;;;;;;-4.53;75.37;100861.31;5108661;28;822;-56
2022/01/24 08:02:14;;;;;;;;;;;;;;;-4.56;75.71;100820.59;5108666;28;852;-56
2022/01/24 08:04:41;;;;;;;;;;;;;;;-4.53;76.42;100833.50;5108501;28;869;-55
2022/01/24 08:07:07;;;;;;;;;;;;;;;-4.46;75.96;100844.00;5108387;28;952;-55
2022/01/24 08:09:34;;;;;;;;;;;;;;;-4.47;75.72;100845.91;5108575;28;843;-55
2022/01/24 08:12:01;;;;;;;;;;;;;;;-4.46;75.85;100844.81;5108459;28;819;-54
2022/01/24 08:14:28;;;;;;;;;;;;;;;-4.50;75.89;100851.88;5108263;28;944;-55
2022/01/24 08:16:54;;;;;;;;;;;;;;;-4.39;76.54;100860.72;5106730;28;2357;-56
2022/01/24 08:19:20;;;;;;;;;;;;;;;-4.36;76.51;100876.34;5108305;28;810;-56
2022/01/24 08:21:47;;;;;;;;;;;;;;;-4.33;75.60;100878.53;5106907;28;1320;-56
2022/01/24 08:24:14;;;;;;;;;;;;;;;-4.27;75.99;100888.19;5108196;28;803;-56
2022/01/24 08:26:40;;;;;;;;;;;;;;;-4.27;75.47;100899.00;5105886;28;917;-55
2022/01/24 08:29:07;;;;;;;;;;;;;;;-4.18;75.62;100883.84;5094681;28;857;-55
2022/01/24 08:31:35;;;;;;;;;;;;;;;-4.06;75.00;100872.72;5094510;28;787;-55
2022/01/24 08:34:02;;;;;;;;;;;;;;;-3.97;74.03;100902.63;5094480;28;818;-56
2022/01/24 08:36:28;;;;;;;;;;;;;;;-3.90;74.20;100917.47;5094274;28;1894;-56
2022/01/24 08:39:01;;;;;;;;;;;;;;;-3.80;73.80;100904.97;5094208;28;906;-56
2022/01/24 08:41:39;;;;;;;;;;;;;;;-3.54;73.21;100874.00;5094211;28;1219;-56
2022/01/24 08:46:46;;;;;;;;;;;;;;;-3.39;70.35;100924.47;5094226;28;715;-55
2022/01/24 08:49:13;;;;;;;;;;;;;;;-3.46;71.54;100893.41;5094184;28;901;-55
2022/01/24 08:51:40;;;;;;;;;;;;;;;-3.49;71.56;100906.41;5094130;28;821;-55
2022/01/24 08:54:07;;;;;;;;;;;;;;;-3.47;71.92;100916.13;5094069;28;861;-55
2022/01/24 08:56:35;;;;;;;;;;;;;;;-3.52;71.83;100916.97;5093921;28;1890;-55
2022/01/24 08:59:03;;;;;;;;;;;;;;;-3.38;71.44;100915.25;5093939;28;858;-56
2022/01/24 09:01:29;;;;;;;;;;;;;;;-3.55;71.83;100904.81;5094680;28;830;-55
2022/01/24 09:03:56;;;;;;;;;;;;;;;-3.62;71.34;100904.34;5094090;28;834;-55
2022/01/24 09:06:23;;;;;;;;;;;;;;;-3.73;72.12;100922.50;5093905;28;799;-54
2022/01/24 09:08:55;;;;;;;;;;;;;;;-3.70;70.84;100923.84;5094018;28;818;-53
2022/01/24 09:11:23;;;;;;;;;;;;;;;-3.72;71.25;100915.19;5093767;28;1363;-55
2022/01/24 09:13:50;;;;;;;;;;;;;;;-3.68;71.28;100913.56;5092417;28;1640;-55
2022/01/24 09:16:16;;;;;;;;;;;;;;;-3.56;71.63;100918.63;5093095;28;1905;-55
2022/01/24 09:18:43;;;;;;;;;;;;;;;-3.44;69.57;100910.97;5093554;28;909;-55
2022/01/24 09:21:10;;;;;;;;;;;;;;;-3.44;70.06;100918.25;5093602;28;838;-55
2022/01/24 09:23:36;;;;;;;;;;;;;;;-3.46;70.08;100901.53;5093475;28;907;-55
2022/01/24 09:26:03;;;;;;;;;;;;;;;-3.43;69.59;100903.69;5093435;28;802;-54
2022/01/24 09:28:29;;;;;;;;;;;;;;;-3.43;69.52;100936.91;5093465;28;814;-55
2022/01/24 09:30:57;;;;;;;;;;;;;;;-3.37;69.16;100879.03;5093358;28;928;-55
2022/01/24 09:33:24;;;;;;;;;;;;;;;-3.44;69.01;100910.97;5093220;28;850;-55
2022/01/24 09:35:52;;;;;;;;;;;;;;;-3.36;69.05;100901.44;5093122;28;1885;-55
2022/01/24 09:38:20;;;;;;;;;;;;;;;-3.35;69.37;100897.66;5092722;28;952;-55
2022/01/24 09:40:47;;;;;;;;;;;;;;;-3.38;68.78;100882.81;5092605;28;953;-54
2022/01/24 09:43:14;;;;;;;;;;;;;;;-3.43;68.74;100885.56;5093111;28;878;-56
2022/01/24 09:45:41;;;;;;;;;;;;;;;-3.35;68.01;100890.38;5093041;28;923;-55
2022/01/24 09:48:08;;;;;;;;;;;;;;;-3.30;68.20;100892.22;5093006;28;919;-55
2022/01/24 09:50:34;;;;;;;;;;;;;;;-3.30;68.09;100881.41;5092930;28;854;-54
2022/01/24 09:53:01;;;;;;;;;;;;;;;-3.24;66.96;100885.69;5092928;28;835;-55
2022/01/24 09:55:28;;;;;;;;;;;;;;;-3.00;67.09;100874.91;5092807;28;1939;-55
2022/01/24 09:57:54;;;;;;;;;;;;;;;-2.86;66.62;100904.78;5092805;28;866;-55
2022/01/24 10:00:22;;;;;;;;;;;;;;;-2.93;65.71;100877.28;5092775;28;1021;-55
2022/01/24 10:02:50;;;;;;;;;;;;;;;-3.05;66.47;100872.25;5092664;28;963;-56
2022/01/24 10:05:21;;;;;;;;;;;;;;;-3.04;66.22;100894.69;5092553;28;917;-55
2022/01/24 10:07:52;;;;;;;;;;;;;;;-3.01;66.45;100881.41;5092658;28;862;-56
2022/01/24 10:10:44;;;;;;;;;;;;;;;-2.97;66.01;100892.47;5092617;28;846;-54
2022/01/24 10:16:29;;;;;;;;;;;;;;;-2.94;65.69;100881.09;5092322;28;1909;-55
2022/01/24 10:19:05;;;;;;;;;;;;;;;-2.76;66.33;100893.88;5092484;28;893;-57
2022/01/24 10:21:50;;;;;;;;;;;;;;;-2.72;65.95;100900.34;5092442;28;838;-55
2022/01/24 10:24:35;;;;;;;;;;;;;;;-2.64;63.96;100898.91;5092186;28;878;-56
2022/01/24 10:27:08;;;;;;;;;;;;;;;-2.71;63.89;100868.66;5090973;28;1583;-55
2022/01/24 10:29:40;;;;;;;;;;;;;;;-2.67;64.74;100897.59;5092612;28;854;-55
2022/01/24 10:32:06;;;;;;;;;;;;;;;-2.55;63.14;100889.06;5092238;28;863;-55
2022/01/24 10:34:36;;;;;;;;;;;;;;;-2.58;63.63;100886.09;5092053;28;847;-53
2022/01/24 10:37:03;;;;;;;;;;;;;;;-2.51;63.05;100895.50;5092134;28;1890;-55
2022/01/24 10:42:59;;;;;;;;;;;;;;;-2.63;62.31;100867.22;5092020;28;684;-52
2022/01/24 10:45:15;;;;;;;;;;;;;;;-2.52;63.40;100899.31;5088736;28;1588;-55
2022/01/24 10:47:47;;;;;;;;;;;;;;;-2.43;62.64;100888.66;5092030;28;834;-55
2022/01/24 10:50:24;;;;;;;;;;;;;;;-2.48;62.78;100900.34;5091722;28;830;-55
2022/01/24 10:52:49;;;;;;;;;;;;;;;-2.41;62.49;100900.00;5091870;28;933;-55
2022/01/24 10:55:27;;;;;;;;;;;;;;;-2.47;63.04;100912.00;5091982;28;1944;-54
2022/01/24 10:57:58;;;;;;;;;;;;;;;-2.53;62.71;100892.28;5091787;28;1050;-55
2022/01/24 11:00:27;;;;;;;;;;;;;;;-2.55;62.66;100888.25;5091822;28;886;-54
2022/01/24 11:02:54;;;;;;;;;;;;;;;-2.43;62.61;100895.97;5091746;28;842;-54
2022/01/24 11:05:23;;;;;;;;;;;;;;;-2.40;62.66;100901.63;5090388;28;1655;-54
2022/01/24 11:07:51;;;;;;;;;;;;;;;-2.29;61.96;100891.47;5090393;28;728;-54
2022/01/24 11:10:18;;;;;;;;;;;;;;;-2.31;61.74;100883.63;5091919;28;830;-54
2022/01/24 11:12:45;;;;;;;;;;;;;;;-2.20;62.75;100905.16;5091704;28;882;-55
2022/01/24 11:15:11;;;;;;;;;;;;;;;-2.08;62.45;100897.44;5091151;28;1972;-55
2022/01/24 11:17:39;;;;;;;;;;;;;;;-2.16;62.11;100901.59;5091630;28;886;-55
2022/01/24 11:20:09;;;;;;;;;;;;;;;-2.25;63.10;100906.03;5092206;28;885;-54
2022/01/24 11:22:41;;;;;;;;;;;;;;;-2.24;63.01;100909.56;5091553;28;980;-55
2022/01/24 11:25:08;;;;;;;;;;;;;;;-2.36;63.04;100918.91;5091463;28;948;-54
2022/01/24 11:27:35;;;;;;;;;;;;;;;-2.40;62.74;100885.38;5091502;28;894;-55
2022/01/24 11:30:05;;;;;;;;;;;;;;;-2.60;63.10;100905.38;5091381;28;898;-55
2022/01/24 11:32:34;;;;;;;;;;;;;;;-2.67;63.54;100891.34;5091439;28;909;-55
2022/01/24 11:35:01;;;;;;;;;;;;;;;-2.84;64.07;100908.03;5091180;28;1938;-54
2022/01/24 11:37:32;;;;;;;;;;;;;;;-2.87;64.01;100909.41;5124129;28;944;-55
2022/01/24 11:40:00;;;;;;;;;;;;;;;-2.89;63.92;100870.19;5091589;28;833;-56
2022/01/24 11:42:31;;;;;;;;;;;;;;;-2.94;65.17;100908.13;5091333;28;914;-54
2022/01/24 11:45:03;;;;;;;;;;;;;;;-2.88;65.51;100913.22;5091530;28;916;-55
2022/01/24 11:47:31;;;;;;;;;;;;;;;-2.84;64.30;100905.31;5091577;28;815;-56
2022/01/24 11:49:58;;;;;;;;;;;;;;;-2.69;63.60;100893.53;5091405;28;834;-55
2022/01/24 11:52:34;;;;;;;;;;;;;;;-2.48;63.82;100918.50;5091298;28;803;-55
2022/01/24 11:55:15;;;;;;;;;;;;;;;-2.37;63.06;100901.06;5091211;28;1881;-55
2022/01/24 11:57:44;;;;;;;;;;;;;;;-2.18;62.66;100914.63;5091139;28;918;-53
2022/01/24 12:00:11;;;;;;;;;;;;;;;-2.20;63.25;100907.88;5091181;28;944;-55
2022/01/24 12:02:50;;;;;;;;;;;;;;;-2.29;62.81;100921.25;5092514;28;878;-54
2022/01/24 12:05:18;;;;;;;;;;;;;;;-2.26;62.76;100913.38;5094939;28;904;-54
2022/01/24 12:07:46;;;;;;;;;;;;;;;-2.05;64.33;100929.34;5094885;28;921;-54
2022/01/24 12:10:36;;;;;;;;;;;;;;;-1.96;62.97;100908.66;5094849;28;925;-55
2022/01/24 12:13:37;;;;;;;;;;;;;;;-2.12;63.12;100918.06;5094839;28;926;-56
2022/01/24 12:16:04;;;;;;;;;;;;;;;-2.19;62.65;100901.38;5094410;28;1910;-55
2022/01/24 12:18:33;;;;;;;;;;;;;;;-2.22;62.61;100918.19;5094998;28;819;-55
2022/01/24 12:21:05;;;;;;;;;;;;;;;-2.11;63.13;100893.41;5095370;28;844;-55
2022/01/24 12:23:33;;;;;;;;;;;;;;;-1.80;63.04;100884.06;5094611;28;913;-55
2022/01/24 12:26:05;;;;;;;;;;;;;;;-1.57;62.54;100890.50;5094685;28;835;-54
2022/01/24 12:28:44;;;;;;;;;;;;;;;-1.76;62.20;100895.94;5094874;28;960;-54
2022/01/24 12:31:20;;;;;;;;;;;;;;;-1.86;62.52;100880.59;5094607;28;963;-55
2022/01/24 12:33:55;;;;;;;;;;;;;;;-1.79;61.98;100866.69;5094652;28;865;-53
2022/01/24 12:36:50;;;;;;;;;;;;;;;-1.71;62.59;100877.69;5094319;28;1941;-55
2022/01/24 12:39:26;;;;;;;;;;;;;;;-1.87;63.25;100873.59;5094316;28;850;-54
2022/01/24 12:41:58;;;;;;;;;;;;;;;-2.00;64.62;100885.16;5094316;28;862;-55
2022/01/24 12:47:05;;;;;;;;;;;;;;;-2.00;66.78;100894.09;5094229;28;680;-55
2022/01/24 12:49:33;;;;;;;;;;;;;;;-2.08;66.23;100890.09;5092871;28;1442;-55
2022/01/24 12:52:02;;;;;;;;;;;;;;;-1.98;64.39;100882.97;5094155;28;921;-55
2022/01/24 12:54:29;;;;;;;;;;;;;;;-1.99;64.03;100884.03;5094020;28;970;-54
2022/01/24 12:57:04;;;;;;;;;;;;;;;-2.18;65.19;100879.41;5094052;28;1878;-54
2022/01/24 12:59:31;;;;;;;;;;;;;;;-2.15;65.14;100891.59;5094180;28;829;-55
2022/01/24 13:02:00;;;;;;;;;;;;;;;-2.20;65.71;100856.41;5094119;28;807;-55
2022/01/24 13:04:35;;;;;;;;;;;;;;;-2.26;64.52;100886.28;5094017;28;889;-55
2022/01/24 13:07:02;;;;;;;;;;;;;;;-2.34;64.43;100895.03;5093757;28;981;-55
2022/01/24 13:09:28;;;;;;;;;;;;;;;-2.24;64.99;100893.31;5093705;28;951;-55
2022/01/24 13:11:56;;;;;;;;;;;;;;;-2.17;64.00;100880.22;5093707;28;905;-55
2022/01/24 13:14:31;;;;;;;;;;;;;;;-2.20;64.66;100910.59;5093551;28;921;-55
2022/01/24 13:22:45;;;;;;;;;;;;;;;-2.18;64.41;100909.19;5093944;28;613;-55
2022/01/24 13:25:14;;;;;;;;;;;;;;;-1.94;64.66;100925.44;5093463;28;834;-55
2022/01/24 13:27:43;;;;;;;;;;;;;;;-2.15;63.03;100905.13;5093405;28;834;-55
2022/01/24 13:30:11;;;;;;;;;;;;;;;-2.39;63.84;100891.59;5093448;28;814;-57
2022/01/24 13:32:48;;;;;;;;;;;;;;;-2.47;64.31;100920.13;5091916;28;1163;-55
2022/01/24 13:35:18;;;;;;;;;;;;;;;-2.46;63.36;100900.06;5093124;28;1985;-56
2022/01/24 13:37:44;;;;;;;;;;;;;;;-2.33;63.55;100914.81;5093282;28;906;-55
2022/01/24 13:40:11;;;;;;;;;;;;;;;-2.32;62.52;100903.69;5093095;28;871;-55
2022/01/24 13:42:37;;;;;;;;;;;;;;;-2.36;62.19;100905.34;5093105;28;932;-55
2022/01/24 13:45:05;;;;;;;;;;;;;;;-2.46;62.81;100900.06;5093085;28;878;-55
2022/01/24 13:47:32;;;;;;;;;;;;;;;-2.70;63.44;100900.84;5093101;28;873;-56
2022/01/24 13:49:58;;;;;;;;;;;;;;;-2.91;63.79;100902.16;5092960;28;795;-55
2022/01/24 13:52:26;;;;;;;;;;;;;;;-2.98;63.81;100923.31;5093038;28;811;-57
2022/01/24 13:54:52;;;;;;;;;;;;;;;-2.95;64.67;100912.72;5092856;28;894;-55
2022/01/24 13:57:19;;;;;;;;;;;;;;;-3.06;64.29;100908.50;5092809;28;1885;-56
2022/01/24 13:59:45;;;;;;;;;;;;;;;-3.24;65.62;100915.44;5091617;28;799;-57
2022/01/24 14:02:29;;;;;;;;;;;;;;;-3.33;65.47;100936.03;5092677;28;961;-57
2022/01/24 14:04:57;;;;;;;;;;;;;;;-3.47;66.75;100910.72;5092712;28;873;-56
2022/01/24 14:07:27;;;;;;;;;;;;;;;-3.55;67.42;100941.84;5092788;28;858;-57
2022/01/24 14:09:53;;;;;;;;;;;;;;;-3.70;67.65;100951.66;5092678;28;836;-57
2022/01/24 14:12:21;;;;;;;;;;;;;;;-3.78;68.07;100952.25;5092796;28;838;-58
2022/01/24 14:15:00;;;;;;;;;;;;;;;-3.83;68.40;100929.88;5091238;28;1418;-57
2022/01/24 14:17:38;;;;;;;;;;;;;;;-3.94;68.13;100953.41;5092363;28;1914;-57
2022/01/24 14:20:08;;;;;;;;;;;;;;;-3.97;67.67;100960.19;5092367;28;996;-57
2022/01/24 14:22:39;;;;;;;;;;;;;;;-3.97;67.87;100975.56;5092398;28;853;-57
2022/01/24 14:25:10;;;;;;;;;;;;;;;-4.02;68.16;100973.69;5091787;28;929;-57
2022/01/24 14:27:39;;;;;;;;;;;;;;;-3.94;67.38;100983.94;5092365;28;794;-57
2022/01/24 14:30:14;;;;;;;;;;;;;;;-3.97;66.89;101030.41;5092337;28;846;-57
2022/01/24 14:32:57;;;;;;;;;;;;;;;-3.90;67.42;101039.03;5090871;28;1631;-57
2022/01/24 14:35:24;;;;;;;;;;;;;;;-3.82;66.83;101001.69;5092478;28;1926;-57
2022/01/24 14:37:53;;;;;;;;;;;;;;;-3.92;66.69;101043.88;5092261;28;827;-57
2022/01/24 14:40:46;;;;;;;;;;;;;;;-3.93;66.61;101041.44;5092295;28;796;-56
2022/01/24 14:46:01;;;;;;;;;;;;;;;-4.08;66.85;101052.31;5092356;28;692;-57
2022/01/24 14:48:27;;;;;;;;;;;;;;;-4.11;66.83;101067.16;5091928;28;1013;-57
2022/01/24 14:50:54;;;;;;;;;;;;;;;-4.11;66.99;101064.47;5091943;28;937;-57
2022/01/24 14:53:28;;;;;;;;;;;;;;;-4.14;66.42;101068.53;5091843;28;905;-57
2022/01/24 14:55:55;;;;;;;;;;;;;;;-4.13;66.38;101069.34;5091840;28;1909;-57
2022/01/24 14:58:22;;;;;;;;;;;;;;;-4.07;66.20;101072.84;5092058;28;807;-57